Time;durP1;ratioP1;P1;durP2;ratioP2;P2;SDS_P1;SDS_P2;PMS_P1;PMS_P2;Temp;Humidity;BMP_temperature;BMP_pressure;BME280_temperature;BME280_humidity;BME280_pressure;Samples;Min_cycle;Max_cycle;Signal;HPM_P1;HPM_P2
2021/03/14 00:00:51;;;;;;;4.73;2.53;;;4.30;99.90;;;;;;5031028;28;20172;-64
2021/03/14 00:03:18;;;;;;;3.27;1.93;;;4.20;99.90;;;;;;5031587;28;20183;-65
2021/03/14 00:05:47;;;;;;;5.57;2.30;;;4.20;99.90;;;;;;5031138;28;20302;-65
2021/03/14 00:08:15;;;;;;;2.27;1.90;;;4.20;99.90;;;;;;5030887;28;20177;-65
2021/03/14 00:10:43;;;;;;;13.93;2.97;;;4.20;99.90;;;;;;5030729;28;20176;-65
2021/03/14 00:13:09;;;;;;;2.17;1.97;;;4.10;99.90;;;;;;5031504;28;20203;-65
2021/03/14 00:15:35;;;;;;;3.83;2.70;;;4.10;99.90;;;;;;5030841;28;20196;-65
2021/03/14 00:18:01;;;;;;;4.97;2.77;;;4.10;99.90;;;;;;5031443;28;20652;-65
2021/03/14 00:20:27;;;;;;;6.07;3.53;;;4.10;99.90;;;;;;5029681;28;20207;-64
2021/03/14 00:22:52;;;;;;;3.33;2.10;;;4.10;99.90;;;;;;5030507;28;20187;-64
2021/03/14 00:25:18;;;;;;;3.53;2.73;;;4.10;99.90;;;;;;5031544;28;20465;-64
2021/03/14 00:27:44;;;;;;;4.43;2.63;;;4.10;99.90;;;;;;5031996;28;20553;-64
2021/03/14 00:30:14;;;;;;;4.47;2.60;;;4.10;99.90;;;;;;5031608;28;20179;-64
2021/03/14 00:32:40;;;;;;;6.60;3.10;;;4.00;99.90;;;;;;5035037;28;20234;-64
2021/03/14 00:35:09;;;;;;;5.47;2.70;;;4.00;99.90;;;;;;5034348;28;20708;-64
2021/03/14 00:37:34;;;;;;;7.13;3.03;;;4.00;99.90;;;;;;5035498;28;20656;-64
2021/03/14 00:40:00;;;;;;;5.23;3.67;;;4.10;99.90;;;;;;5035219;28;20267;-64
2021/03/14 00:42:25;;;;;;;7.27;2.90;;;4.10;99.90;;;;;;5034683;28;20171;-64
2021/03/14 00:44:51;;;;;;;5.43;2.33;;;4.20;99.90;;;;;;5035813;28;20664;-64
2021/03/14 00:47:17;;;;;;;5.13;2.83;;;4.30;99.90;;;;;;5035420;28;20566;-64
2021/03/14 00:49:42;;;;;;;6.67;2.90;;;4.30;99.90;;;;;;5034974;28;20221;-65
2021/03/14 00:52:08;;;;;;;6.23;2.83;;;4.40;99.90;;;;;;5034127;28;20264;-65
2021/03/14 00:54:34;;;;;;;6.57;3.00;;;4.50;99.90;;;;;;5034899;28;20219;-65
2021/03/14 00:57:00;;;;;;;7.17;2.83;;;4.50;99.90;;;;;;5034543;28;20562;-65
2021/03/14 00:59:25;;;;;;;5.23;2.70;;;4.60;99.90;;;;;;5035017;28;20159;-65
2021/03/14 01:01:51;;;;;;;8.20;2.87;;;4.70;99.90;;;;;;5034394;28;20553;-65
2021/03/14 01:04:17;;;;;;;3.60;2.40;;;4.70;99.90;;;;;;5034996;28;20168;-65
2021/03/14 01:06:42;;;;;;;8.23;2.50;;;4.70;99.90;;;;;;5034557;28;20271;-65
2021/03/14 01:09:08;;;;;;;4.17;2.37;;;4.70;99.90;;;;;;5034828;28;20550;-65
2021/03/14 01:11:34;;;;;;;5.73;2.10;;;4.70;99.90;;;;;;5034046;28;20628;-65
2021/03/14 01:14:00;;;;;;;7.27;2.30;;;4.70;99.90;;;;;;5034711;28;20172;-65
2021/03/14 01:16:25;;;;;;;4.03;1.93;;;4.70;99.90;;;;;;5034628;28;20184;-65
2021/03/14 01:18:51;;;;;;;8.00;2.93;;;4.70;99.90;;;;;;5034413;28;20183;-65
2021/03/14 01:21:17;;;;;;;3.47;2.10;;;4.70;99.90;;;;;;5034340;28;20271;-65
2021/03/14 01:23:42;;;;;;;6.20;2.60;;;4.80;99.90;;;;;;5034535;28;20175;-65
2021/03/14 01:26:08;;;;;;;3.13;1.97;;;4.80;99.90;;;;;;5034328;28;20230;-65
2021/03/14 01:28:34;;;;;;;3.83;1.80;;;4.80;99.90;;;;;;5034512;28;20198;-65
2021/03/14 01:31:00;;;;;;;7.13;2.33;;;4.80;99.90;;;;;;5034003;28;20179;-65
2021/03/14 01:33:26;;;;;;;4.47;1.90;;;4.80;99.90;;;;;;5034309;28;20195;-65
2021/03/14 01:35:52;;;;;;;5.00;2.13;;;4.70;99.90;;;;;;5034337;28;20611;-65
2021/03/14 01:38:18;;;;;;;2.33;2.07;;;4.70;99.90;;;;;;5034219;28;20187;-65
2021/03/14 01:40:43;;;;;;;2.63;1.80;;;4.70;99.90;;;;;;5032620;28;20172;-64
2021/03/14 01:43:09;;;;;;;5.90;2.27;;;4.70;99.90;;;;;;5033977;28;20218;-65
2021/03/14 01:45:35;;;;;;;2.63;2.10;;;4.70;99.90;;;;;;5034026;28;20687;-65
2021/03/14 01:48:06;;;;;;;3.87;1.93;;;4.80;99.90;;;;;;5033885;28;20196;-65
2021/03/14 01:50:34;;;;;;;5.10;1.90;;;4.80;99.90;;;;;;5033555;28;20176;-65
2021/03/14 01:53:00;;;;;;;2.50;1.43;;;4.70;99.90;;;;;;5033764;28;20252;-64
2021/03/14 01:55:26;;;;;;;2.83;1.67;;;4.80;99.90;;;;;;5033769;28;20700;-65
2021/03/14 01:57:52;;;;;;;4.23;2.23;;;4.80;99.90;;;;;;5033649;28;20172;-64
2021/03/14 02:00:21;;;;;;;3.40;2.03;;;4.80;99.90;;;;;;5033894;28;20164;-65
2021/03/14 02:02:48;;;;;;;2.40;1.70;;;4.80;99.90;;;;;;5033544;28;20186;-65
2021/03/14 02:05:16;;;;;;;7.23;2.07;;;4.80;99.90;;;;;;5033757;28;20191;-65
2021/03/14 02:07:44;;;;;;;4.73;2.03;;;4.80;99.90;;;;;;5033384;28;20264;-65
2021/03/14 02:10:13;;;;;;;2.23;1.80;;;4.80;99.90;;;;;;5033480;28;20579;-64
2021/03/14 02:12:47;;;;;;;2.87;1.73;;;4.80;99.90;;;;;;5033070;28;20203;-65
2021/03/14 02:15:13;;;;;;;2.03;1.73;;;4.80;99.90;;;;;;5033385;28;20187;-65
2021/03/14 02:17:41;;;;;;;5.73;1.77;;;4.80;99.90;;;;;;5033165;28;20385;-65
2021/03/14 02:20:17;;;;;;;2.63;1.90;;;4.80;99.90;;;;;;5033443;28;20222;-65
2021/03/14 02:22:44;;;;;;;2.80;2.60;;;4.70;99.90;;;;;;5033130;28;20202;-66
2021/03/14 02:25:35;;;;;;;1.70;1.60;;;4.80;99.90;;;;;;5033082;28;20207;-65
2021/03/14 02:28:02;;;;;;;2.93;1.80;;;4.70;99.90;;;;;;5033388;28;20183;-65
2021/03/14 02:30:27;;;;;;;4.20;1.80;;;4.80;99.90;;;;;;5032885;28;20570;-65
2021/03/14 02:32:54;;;;;;;11.43;2.00;;;4.80;99.90;;;;;;5032978;28;20210;-65
2021/03/14 02:35:21;;;;;;;4.83;1.90;;;4.80;99.90;;;;;;5033764;28;20187;-65
2021/03/14 02:37:48;;;;;;;3.90;2.03;;;4.80;99.90;;;;;;5032977;28;20280;-65
2021/03/14 02:40:15;;;;;;;4.10;2.17;;;4.80;99.90;;;;;;5033685;28;20164;-65
2021/03/14 02:42:41;;;;;;;6.03;2.10;;;4.80;99.90;;;;;;5032926;28;20229;-65
2021/03/14 02:45:09;;;;;;;5.67;2.03;;;4.70;99.90;;;;;;5055693;23;20224;-64
2021/03/14 02:47:37;;;;;;;2.50;2.17;;;4.70;99.90;;;;;;5033091;28;20176;-64
2021/03/14 02:50:09;;;;;;;4.10;2.17;;;4.70;99.90;;;;;;5033005;28;20168;-64
2021/03/14 02:52:36;;;;;;;4.07;2.10;;;4.70;99.90;;;;;;5032657;28;20238;-64
2021/03/14 02:55:02;;;;;;;5.17;2.00;;;4.70;99.90;;;;;;5032727;28;20241;-65
2021/03/14 02:57:28;;;;;;;4.47;2.57;;;4.60;99.90;;;;;;5033111;28;20179;-67
2021/03/14 02:59:56;;;;;;;2.07;1.90;;;4.60;99.90;;;;;;5033076;28;20190;-65
2021/03/14 03:02:22;;;;;;;5.43;2.50;;;4.60;99.90;;;;;;5032843;28;20282;-65
2021/03/14 03:04:49;;;;;;;4.77;1.90;;;4.50;99.90;;;;;;5033192;28;20199;-66
2021/03/14 03:07:16;;;;;;;3.53;2.00;;;4.40;99.90;;;;;;5033067;28;20186;-65
2021/03/14 03:09:45;;;;;;;6.13;2.30;;;4.40;99.90;;;;;;5032986;28;20527;-64
2021/03/14 03:12:12;;;;;;;6.07;1.90;;;4.40;99.90;;;;;;5032660;28;20668;-66
2021/03/14 03:14:39;;;;;;;3.03;2.10;;;4.40;99.90;;;;;;5032670;28;20185;-66
2021/03/14 03:17:05;;;;;;;3.17;2.10;;;4.40;99.90;;;;;;5032616;28;20266;-65
2021/03/14 03:19:31;;;;;;;2.73;1.80;;;4.50;99.90;;;;;;5032985;28;20178;-65
2021/03/14 03:21:57;;;;;;;4.50;2.33;;;4.40;99.90;;;;;;5032530;28;20183;-66
2021/03/14 03:24:23;;;;;;;3.83;2.10;;;4.40;99.90;;;;;;5032943;28;20230;-66
2021/03/14 03:26:49;;;;;;;3.50;2.00;;;4.30;99.90;;;;;;5032235;28;20195;-65
2021/03/14 03:29:16;;;;;;;2.70;1.93;;;4.30;99.90;;;;;;5032845;28;20171;-64
2021/03/14 03:31:42;;;;;;;4.70;2.07;;;4.30;99.90;;;;;;5032165;28;20552;-65
2021/03/14 03:34:11;;;;;;;2.03;1.80;;;4.30;99.90;;;;;;5032378;28;20259;-64
2021/03/14 03:36:37;;;;;;;5.00;1.90;;;4.30;99.90;;;;;;5032027;28;20199;-65
2021/03/14 03:39:07;;;;;;;4.23;2.27;;;4.30;99.90;;;;;;5032528;28;20182;-65
2021/03/14 03:41:36;;;;;;;3.40;2.07;;;4.30;99.90;;;;;;5032130;28;20175;-65
2021/03/14 03:44:02;;;;;;;7.03;2.83;;;4.40;99.90;;;;;;5032661;28;20171;-66
2021/03/14 03:46:29;;;;;;;4.30;2.20;;;4.40;99.90;;;;;;5032346;28;20207;-65
2021/03/14 03:48:56;;;;;;;8.50;2.30;;;4.40;99.90;;;;;;5032338;28;20184;-65
2021/03/14 03:51:28;;;;;;;3.17;1.83;;;4.40;99.90;;;;;;5031976;28;20164;-66
2021/03/14 03:53:58;;;;;;;6.43;2.70;;;4.40;99.90;;;;;;5034045;28;20696;-65
2021/03/14 03:56:24;;;;;;;4.50;2.20;;;4.40;99.90;;;;;;5032479;28;20257;-65
2021/03/14 03:58:51;;;;;;;7.73;2.20;;;4.40;99.90;;;;;;5032009;28;20221;-65
2021/03/14 04:01:17;;;;;;;3.80;2.20;;;4.50;99.90;;;;;;5031689;28;20176;-65
2021/03/14 04:03:45;;;;;;;9.70;5.03;;;4.40;99.90;;;;;;5031473;28;20171;-64
2021/03/14 04:06:12;;;;;;;8.20;2.40;;;4.50;99.90;;;;;;5031143;28;20195;-65
2021/03/14 04:08:40;;;;;;;6.80;2.40;;;4.40;99.90;;;;;;5031606;28;20203;-65
2021/03/14 04:11:08;;;;;;;3.73;2.83;;;4.40;99.90;;;;;;5031864;28;20225;-64
2021/03/14 04:13:35;;;;;;;3.50;2.40;;;4.40;99.90;;;;;;5031569;28;20198;-65
2021/03/14 04:16:03;;;;;;;6.20;2.97;;;4.40;99.90;;;;;;5031524;28;20191;-64
2021/03/14 04:18:31;;;;;;;7.73;2.40;;;4.40;99.90;;;;;;5031652;28;20176;-65
2021/03/14 04:20:58;;;;;;;4.67;2.50;;;4.40;99.90;;;;;;5031403;28;20226;-65
2021/03/14 04:23:25;;;;;;;9.87;3.20;;;4.40;99.90;;;;;;5031563;28;20199;-64
2021/03/14 04:25:53;;;;;;;7.43;3.00;;;4.40;99.90;;;;;;5031561;28;20202;-65
2021/03/14 04:28:22;;;;;;;7.93;2.90;;;4.30;99.90;;;;;;5031858;28;20282;-65
2021/03/14 04:30:48;;;;;;;8.17;3.57;;;4.30;99.90;;;;;;5031196;28;20172;-64
2021/03/14 04:33:16;;;;;;;5.73;2.90;;;4.30;99.90;;;;;;5031403;28;20748;-65
2021/03/14 04:35:42;;;;;;;2.90;2.60;;;4.30;99.90;;;;;;5032944;28;20202;-65
2021/03/14 04:38:09;;;;;;;5.30;2.60;;;4.30;99.90;;;;;;5032170;28;20175;-66
2021/03/14 04:40:35;;;;;;;3.70;2.43;;;4.30;99.90;;;;;;5031850;28;20167;-65
2021/03/14 04:43:03;;;;;;;6.30;2.67;;;4.30;99.90;;;;;;5031952;28;20179;-66
2021/03/14 04:45:29;;;;;;;3.77;2.80;;;4.30;99.90;;;;;;5032083;28;20627;-65
2021/03/14 04:47:55;;;;;;;4.83;2.77;;;4.30;99.90;;;;;;5031810;28;20636;-66
2021/03/14 04:50:24;;;;;;;6.50;3.10;;;4.20;99.90;;;;;;5031875;28;20182;-65
2021/03/14 04:52:52;;;;;;;6.10;2.70;;;4.20;99.90;;;;;;5031305;28;20258;-66
2021/03/14 04:55:18;;;;;;;5.50;2.77;;;4.20;99.90;;;;;;5031260;28;20195;-66
2021/03/14 04:57:45;;;;;;;7.63;3.47;;;4.20;99.90;;;;;;5031523;28;20655;-64
2021/03/14 05:00:14;;;;;;;7.00;3.00;;;4.10;99.90;;;;;;5031581;28;20251;-65
2021/03/14 05:02:42;;;;;;;3.20;2.60;;;4.10;99.90;;;;;;5031277;28;20262;-65
2021/03/14 05:05:09;;;;;;;7.20;3.13;;;4.00;99.90;;;;;;5031651;28;20183;-66
2021/03/14 05:07:36;;;;;;;11.37;3.77;;;4.10;99.90;;;;;;5031428;28;20629;-65
2021/03/14 05:10:07;;;;;;;2.83;2.47;;;4.00;99.90;;;;;;5011755;28;20644;-65
2021/03/14 05:12:34;;;;;;;5.50;2.73;;;3.90;99.90;;;;;;5011592;28;20228;-66
2021/03/14 05:15:02;;;;;;;5.00;2.20;;;3.90;99.90;;;;;;5031030;28;20297;-65
2021/03/14 05:17:28;;;;;;;4.57;2.53;;;3.80;99.90;;;;;;5032651;28;20176;-64
2021/03/14 05:19:54;;;;;;;7.43;3.10;;;3.80;99.90;;;;;;5034787;28;20270;-66
2021/03/14 05:22:20;;;;;;;10.93;3.60;;;3.70;99.90;;;;;;5035035;28;20651;-65
2021/03/14 05:24:48;;;;;;;4.33;2.30;;;3.70;99.90;;;;;;5035445;28;20176;-65
2021/03/14 05:27:14;;;;;;;9.07;3.63;;;3.70;99.90;;;;;;5035201;28;20187;-65
2021/03/14 05:29:40;;;;;;;4.40;2.47;;;3.70;99.90;;;;;;5035158;28;20545;-65
2021/03/14 05:32:06;;;;;;;8.23;3.03;;;3.70;99.90;;;;;;5034439;28;20198;-65
2021/03/14 05:34:32;;;;;;;7.53;2.60;;;3.70;99.90;;;;;;5034810;28;20167;-65
2021/03/14 05:36:57;;;;;;;5.23;2.70;;;3.80;99.90;;;;;;5034925;28;20522;-64
2021/03/14 05:39:23;;;;;;;8.63;3.23;;;3.80;99.90;;;;;;5034885;28;20175;-65
2021/03/14 05:41:49;;;;;;;9.40;2.97;;;3.90;99.90;;;;;;5034816;28;20187;-66
2021/03/14 05:44:15;;;;;;;10.63;3.40;;;3.90;99.90;;;;;;5035152;28;20538;-65
2021/03/14 05:46:41;;;;;;;5.10;3.53;;;3.90;99.90;;;;;;5034389;28;20222;-66
2021/03/14 05:49:08;;;;;;;9.57;3.20;;;4.00;99.90;;;;;;5034837;28;20217;-66
2021/03/14 05:51:42;;;;;;;5.13;3.00;;;4.00;99.90;;;;;;5033732;28;20211;-65
2021/03/14 05:54:11;;;;;;;8.60;3.77;;;4.00;99.90;;;;;;5035419;28;20213;-64
2021/03/14 05:56:40;;;;;;;6.07;3.00;;;4.00;99.90;;;;;;5034026;28;20669;-65
2021/03/14 05:59:08;;;;;;;4.63;3.17;;;4.00;99.90;;;;;;5034394;28;20552;-65
2021/03/14 06:01:34;;;;;;;7.67;3.63;;;4.00;99.90;;;;;;5033951;28;20205;-64
2021/03/14 06:04:00;;;;;;;10.70;3.47;;;4.00;99.90;;;;;;5034600;28;20250;-65
2021/03/14 06:06:26;;;;;;;5.27;3.30;;;4.10;99.90;;;;;;5034217;28;20188;-65
2021/03/14 06:08:52;;;;;;;6.63;3.27;;;4.10;99.90;;;;;;5032797;28;20633;-65
2021/03/14 06:11:18;;;;;;;9.50;3.07;;;4.10;99.90;;;;;;5033354;28;20199;-65
2021/03/14 06:13:45;;;;;;;3.87;3.10;;;4.10;99.90;;;;;;5033941;28;20218;-65
2021/03/14 06:16:11;;;;;;;8.60;3.10;;;4.20;99.90;;;;;;5033643;28;20613;-65
2021/03/14 06:18:38;;;;;;;4.53;3.30;;;4.20;99.90;;;;;;5033622;28;20206;-66
2021/03/14 06:21:17;;;;;;;9.90;3.40;;;4.20;99.90;;;;;;5033680;28;20250;-64
2021/03/14 06:23:57;;;;;;;8.77;3.40;;;4.30;99.90;;;;;;5033517;28;20179;-65
2021/03/14 06:26:41;;;;;;;5.93;3.40;;;4.20;99.90;;;;;;5033962;28;20218;-66
2021/03/14 06:29:19;;;;;;;5.73;3.30;;;4.30;99.90;;;;;;5032601;28;20171;-64
2021/03/14 06:31:59;;;;;;;4.77;3.20;;;4.20;99.90;;;;;;5032997;28;20195;-65
2021/03/14 06:34:33;;;;;;;6.23;3.47;;;4.30;99.90;;;;;;5033759;28;20636;-66
2021/03/14 06:37:11;;;;;;;3.27;2.20;;;4.30;99.90;;;;;;5033494;28;20824;-65
2021/03/14 06:39:39;;;;;;;8.50;3.27;;;4.40;99.90;;;;;;5013562;28;20259;-66
2021/03/14 06:42:05;;;;;;;4.17;3.00;;;4.30;99.90;;;;;;5013634;28;20175;-66
2021/03/14 06:44:33;;;;;;;9.87;3.20;;;4.40;99.90;;;;;;5033080;28;20183;-65
2021/03/14 06:47:00;;;;;;;10.13;3.83;;;4.40;99.90;;;;;;5033405;28;20176;-65
2021/03/14 06:49:28;;;;;;;9.30;4.00;;;4.50;99.90;;;;;;5032841;28;20202;-64
2021/03/14 06:51:58;;;;;;;9.07;3.43;;;4.60;99.90;;;;;;5032890;28;20207;-64
2021/03/14 06:54:36;;;;;;;9.77;3.40;;;4.60;99.90;;;;;;5033289;28;20168;-65
2021/03/14 06:57:17;;;;;;;12.20;3.53;;;4.70;99.90;;;;;;5033248;28;20175;-64
2021/03/14 06:59:49;;;;;;;7.43;2.90;;;4.70;99.90;;;;;;5032850;28;20224;-65
2021/03/14 07:02:25;;;;;;;8.20;3.70;;;4.80;99.90;;;;;;5032828;28;20168;-65
2021/03/14 07:04:54;;;;;;;5.57;3.53;;;4.90;99.90;;;;;;5033081;28;20254;-65
2021/03/14 07:07:26;;;;;;;13.07;3.53;;;4.90;99.90;;;;;;5033041;28;20186;-65
2021/03/14 07:10:05;;;;;;;4.83;3.53;;;5.00;99.90;;;;;;5032075;28;20180;-64
2021/03/14 07:12:38;;;;;;;6.00;3.97;;;5.00;99.90;;;;;;5012068;28;20238;-64
2021/03/14 07:15:14;;;;;;;10.60;3.93;;;5.10;99.90;;;;;;5012978;28;20296;-65
2021/03/14 07:17:42;;;;;;;5.50;3.80;;;5.20;99.90;;;;;;5013103;28;20210;-65
2021/03/14 07:20:19;;;;;;;10.40;3.60;;;5.30;99.90;;;;;;5031958;28;20171;-65
2021/03/14 07:23:06;;;;;;;7.90;3.80;;;5.40;99.90;;;;;;5031794;28;20224;-64
2021/03/14 07:25:40;;;;;;;7.20;3.20;;;5.50;99.90;;;;;;5031816;28;20252;-65
2021/03/14 07:28:07;;;;;;;11.33;5.63;;;5.50;99.90;;;;;;5032212;28;20660;-65
2021/03/14 07:30:33;;;;;;;5.60;3.27;;;5.60;99.90;;;;;;5031520;28;20228;-65
2021/03/14 07:32:59;;;;;;;10.87;3.63;;;5.80;99.90;;;;;;5031587;28;20211;-65
2021/03/14 07:35:26;;;;;;;9.07;2.87;;;5.80;99.90;;;;;;5031873;28;20188;-64
2021/03/14 07:37:54;;;;;;;8.83;3.10;;;5.80;99.90;;;;;;5031900;28;20188;-65
2021/03/14 07:40:23;;;;;;;9.50;3.80;;;5.80;99.90;;;;;;5031623;28;20656;-65
2021/03/14 07:42:49;;;;;;;3.33;2.50;;;5.80;99.90;;;;;;5032061;28;20183;-65
2021/03/14 07:45:19;;;;;;;7.80;2.90;;;5.80;99.90;;;;;;5031593;28;20250;-65
2021/03/14 07:47:45;;;;;;;10.93;4.33;;;5.60;99.90;;;;;;5031563;28;20645;-65
2021/03/14 07:50:16;;;;;;;8.63;4.30;;;5.60;99.90;;;;;;5031709;28;20171;-65
2021/03/14 07:52:42;;;;;;;12.47;6.23;;;5.60;99.90;;;;;;5031768;28;20199;-65
2021/03/14 07:55:18;;;;;;;10.87;3.80;;;5.50;99.90;;;;;;5031736;28;20194;-65
2021/03/14 07:57:49;;;;;;;6.30;2.60;;;5.50;99.90;;;;;;5031704;28;20278;-65
2021/03/14 08:00:26;;;;;;;12.93;3.87;;;5.50;99.90;;;;;;5032474;28;20168;-66
2021/03/14 08:03:02;;;;;;;8.30;3.37;;;5.60;99.90;;;;;;5032864;28;20179;-65
2021/03/14 08:05:37;;;;;;;10.73;3.40;;;5.70;99.90;;;;;;5032117;28;20560;-65
2021/03/14 08:08:04;;;;;;;8.70;3.27;;;5.90;99.90;;;;;;5032217;28;20182;-65
2021/03/14 08:10:34;;;;;;;9.83;3.73;;;6.10;99.90;;;;;;5032184;28;20172;-65
2021/03/14 08:13:01;;;;;;;6.50;3.43;;;6.30;99.90;;;;;;5032125;28;20261;-65
2021/03/14 08:15:31;;;;;;;11.33;4.10;;;6.40;99.90;;;;;;5031492;28;20249;-66
2021/03/14 08:17:59;;;;;;;10.20;4.00;;;6.50;99.90;;;;;;5032587;28;20175;-65
2021/03/14 08:20:47;;;;;;;7.03;3.63;;;6.60;99.90;;;;;;5032272;28;20187;-65
2021/03/14 08:23:17;;;;;;;6.80;3.50;;;6.50;99.90;;;;;;5031930;28;20171;-64
2021/03/14 08:25:47;;;;;;;8.50;3.90;;;6.40;99.90;;;;;;5030670;28;20187;-65
2021/03/14 08:28:28;;;;;;;17.47;4.27;;;6.30;99.90;;;;;;5032479;28;20179;-65
2021/03/14 08:31:04;;;;;;;10.10;4.37;;;6.30;99.90;;;;;;5030905;28;20193;-65
2021/03/14 08:33:44;;;;;;;13.27;4.30;;;6.40;99.90;;;;;;5031621;28;20245;-65
2021/03/14 08:36:14;;;;;;;9.97;5.20;;;6.40;99.90;;;;;;5031619;28;20222;-65
2021/03/14 08:38:54;;;;;;;10.67;4.20;;;6.40;99.90;;;;;;5031335;28;20168;-64
2021/03/14 08:41:35;;;;;;;17.00;4.70;;;6.40;99.90;;;;;;5031641;28;20226;-65
2021/03/14 08:44:01;;;;;;;7.40;3.53;;;6.40;99.90;;;;;;5032498;28;20194;-65
2021/03/14 08:46:48;;;;;;;13.77;4.37;;;6.30;99.90;;;;;;5032398;28;20219;-65
2021/03/14 08:49:14;;;;;;;8.50;5.60;;;6.40;99.90;;;;;;5031639;28;20685;-65
2021/03/14 08:51:40;;;;;;;8.00;4.37;;;6.50;99.90;;;;;;5030035;28;20179;-65
2021/03/14 08:54:06;;;;;;;5.23;3.37;;;6.60;99.90;;;;;;5036450;28;20164;-66
2021/03/14 08:56:33;;;;;;;12.07;5.03;;;6.60;99.90;;;;;;5034492;28;20286;-65
2021/03/14 08:59:11;;;;;;;7.53;3.73;;;6.50;99.90;;;;;;5035617;28;20633;-66
2021/03/14 09:01:38;;;;;;;12.03;5.00;;;6.50;99.90;;;;;;5034213;28;20182;-65
2021/03/14 09:04:15;;;;;;;11.60;4.30;;;6.30;99.90;;;;;;5035878;28;20171;-66
2021/03/14 09:06:41;;;;;;;8.17;3.97;;;6.10;99.90;;;;;;5035161;28;20681;-65
2021/03/14 09:09:16;;;;;;;5.97;4.93;;;6.00;99.90;;;;;;5034570;28;20211;-65
2021/03/14 09:11:54;;;;;;;6.70;3.67;;;5.80;99.90;;;;;;5034586;28;20198;-65
2021/03/14 09:14:28;;;;;;;8.33;3.90;;;5.60;99.90;;;;;;5034645;28;20191;-64
2021/03/14 09:17:03;;;;;;;5.13;3.50;;;5.50;99.90;;;;;;5036271;28;20167;-66
2021/03/14 09:19:55;;;;;;;4.33;3.93;;;5.40;99.90;;;;;;5035124;28;20179;-65
2021/03/14 09:22:24;;;;;;;9.83;4.10;;;5.50;99.90;;;;;;5034303;28;20217;-65
2021/03/14 09:24:51;;;;;;;4.93;3.33;;;5.60;99.90;;;;;;5034848;28;20566;-65
2021/03/14 09:27:25;;;;;;;5.23;4.60;;;5.60;99.90;;;;;;5034798;28;20668;-66
2021/03/14 09:30:09;;;;;;;5.70;3.67;;;5.70;99.90;;;;;;5034509;28;20554;-65
2021/03/14 09:32:35;;;;;;;11.17;4.47;;;5.70;99.90;;;;;;5034978;28;20206;-65
2021/03/14 09:35:17;;;;;;;6.63;3.50;;;5.70;99.90;;;;;;5034975;28;20195;-65
2021/03/14 09:37:46;;;;;;;3.10;2.77;;;5.80;99.90;;;;;;5034755;28;20641;-65
2021/03/14 09:40:16;;;;;;;6.97;3.27;;;5.80;99.90;;;;;;5033923;28;20171;-66
2021/03/14 09:42:43;;;;;;;3.80;2.97;;;5.80;99.90;;;;;;5034093;28;20477;-66
2021/03/14 09:45:12;;;;;;;4.73;2.60;;;5.80;99.90;;;;;;5034059;28;20243;-66
2021/03/14 09:48:00;;;;;;;5.27;3.07;;;5.70;99.90;;;;;;5033980;28;20230;-66
2021/03/14 09:50:27;;;;;;;7.30;2.77;;;5.50;99.90;;;;;;5033757;28;20171;-65
2021/03/14 09:52:53;;;;;;;3.37;2.63;;;5.40;99.90;;;;;;5033783;28;20209;-65
2021/03/14 09:55:26;;;;;;;3.97;3.57;;;5.20;99.90;;;;;;5033926;28;20214;-64
2021/03/14 09:57:52;;;;;;;3.83;3.27;;;5.20;99.90;;;;;;5033320;28;20206;-65
2021/03/14 10:00:29;;;;;;;5.60;3.77;;;5.30;99.90;;;;;;5033673;28;20226;-64
2021/03/14 10:02:58;;;;;;;5.30;4.43;;;5.50;99.90;;;;;;5033558;28;20179;-67
2021/03/14 10:05:24;;;;;;;7.07;3.70;;;5.70;99.90;;;;;;5033498;28;20707;-63
2021/03/14 10:07:51;;;;;;;6.83;4.53;;;5.70;99.90;;;;;;5033652;28;20187;-68
2021/03/14 10:10:17;;;;;;;5.37;3.97;;;5.80;99.90;;;;;;5033761;28;20172;-65
2021/03/14 10:12:44;;;;;;;7.40;4.13;;;5.90;99.90;;;;;;5033246;28;20210;-64
2021/03/14 10:15:15;;;;;;;10.13;4.33;;;5.90;99.90;;;;;;5033260;28;20187;-65
2021/03/14 10:17:42;;;;;;;8.33;4.80;;;5.90;99.90;;;;;;5033301;28;20661;-64
2021/03/14 10:20:08;;;;;;;3.93;3.60;;;6.10;99.90;;;;;;5033256;28;20243;-64
2021/03/14 10:22:34;;;;;;;10.63;5.87;;;6.20;99.90;;;;;;5033189;28;20168;-64
2021/03/14 10:25:00;;;;;;;8.07;5.80;;;6.30;99.90;;;;;;5033393;28;20271;-64
2021/03/14 10:27:27;;;;;;;8.13;5.70;;;6.30;99.90;;;;;;5033125;28;20184;-64
2021/03/14 10:29:58;;;;;;;5.80;5.13;;;6.50;99.90;;;;;;5032042;28;20245;-64
2021/03/14 10:32:29;;;;;;;5.77;4.93;;;6.80;99.90;;;;;;5032771;28;20283;-64
2021/03/14 10:34:57;;;;;;;6.03;4.17;;;7.20;99.90;;;;;;5033297;28;20529;-64
2021/03/14 10:37:31;;;;;;;7.13;5.20;;;7.60;99.90;;;;;;5032882;28;20226;-64
2021/03/14 10:40:03;;;;;;;3.10;2.73;;;7.90;99.90;;;;;;5032978;28;20199;-64
2021/03/14 10:42:52;;;;;;;7.17;3.53;;;8.00;99.90;;;;;;5033002;28;20595;-66
2021/03/14 10:45:24;;;;;;;3.23;2.93;;;8.00;99.90;;;;;;5032788;28;20711;-66
2021/03/14 10:48:04;;;;;;;3.30;3.00;;;8.00;99.90;;;;;;5032781;28;20279;-64
2021/03/14 10:50:32;;;;;;;3.50;3.20;;;7.70;99.90;;;;;;5032145;28;20245;-65
2021/03/14 10:53:17;;;;;;;3.50;2.70;;;7.60;99.90;;;;;;5032901;28;20231;-65
2021/03/14 10:55:44;;;;;;;5.77;3.80;;;7.30;99.90;;;;;;5031910;28;20241;-65
2021/03/14 10:58:18;;;;;;;3.20;2.90;;;7.00;99.90;;;;;;5032708;28;20171;-64
2021/03/14 11:00:50;;;;;;;4.07;3.20;;;6.80;99.90;;;;;;5032376;28;20180;-64
2021/03/14 11:03:26;;;;;;;3.80;3.13;;;6.60;99.90;;;;;;5032756;28;20207;-65
2021/03/14 11:06:05;;;;;;;4.23;3.83;;;6.50;99.90;;;;;;5032033;28;20706;-64
2021/03/14 11:08:55;;;;;;;7.37;4.53;;;6.60;99.90;;;;;;5032415;28;20690;-65
2021/03/14 11:11:28;;;;;;;5.20;4.70;;;6.70;99.90;;;;;;5012386;28;20180;-65
2021/03/14 11:13:54;;;;;;;6.57;4.63;;;6.80;99.90;;;;;;5031957;28;20188;-65
2021/03/14 11:16:25;;;;;;;6.67;3.80;;;7.10;99.90;;;;;;5031821;28;20206;-65
2021/03/14 11:18:58;;;;;;;5.03;4.43;;;7.30;99.90;;;;;;5031819;28;20176;-65
2021/03/14 11:21:24;;;;;;;4.30;3.70;;;7.50;99.90;;;;;;5032040;28;20187;-64
2021/03/14 11:23:50;;;;;;;8.33;4.23;;;7.70;99.90;;;;;;5032346;28;20179;-64
2021/03/14 11:26:15;;;;;;;5.90;4.73;;;7.90;99.90;;;;;;5032189;28;20195;-65
2021/03/14 11:28:47;;;;;;;5.63;4.13;;;8.20;99.90;;;;;;5031787;28;20262;-65
2021/03/14 11:31:14;;;;;;;12.60;8.10;;;8.70;99.90;;;;;;5030979;28;20715;-65
2021/03/14 11:33:40;;;;;;;4.20;3.80;;;9.00;99.90;;;;;;5031104;28;20238;-64
2021/03/14 11:36:06;;;;;;;6.70;4.70;;;9.30;99.90;;;;;;5031766;28;20648;-65
2021/03/14 11:38:32;;;;;;;6.10;5.07;;;9.90;99.90;;;;;;5031919;28;20250;-65
2021/03/14 11:40:59;;;;;;;4.43;3.43;;;10.20;99.90;;;;;;5031742;28;20182;-64
2021/03/14 11:43:25;;;;;;;7.23;5.57;;;10.10;99.90;;;;;;5031699;28;20229;-64
2021/03/14 11:45:51;;;;;;;6.40;4.60;;;9.80;99.90;;;;;;5031377;28;20234;-64
2021/03/14 11:48:18;;;;;;;5.13;4.10;;;9.50;99.90;;;;;;5031730;28;20211;-64
2021/03/14 11:50:44;;;;;;;4.37;3.83;;;9.20;99.90;;;;;;5031166;28;20263;-64
2021/03/14 11:53:11;;;;;;;4.33;3.70;;;9.00;99.90;;;;;;5031487;28;20234;-64
2021/03/14 11:55:37;;;;;;;4.67;4.00;;;8.90;99.90;;;;;;5031073;28;20234;-64
2021/03/14 11:58:03;;;;;;;6.60;4.33;;;8.70;99.90;;;;;;5031456;28;20210;-64
2021/03/14 12:00:29;;;;;;;4.97;3.47;;;8.60;99.90;;;;;;5031323;28;20175;-65
2021/03/14 12:02:55;;;;;;;7.07;3.60;;;8.60;99.90;;;;;;5030095;28;20648;-65
2021/03/14 12:05:21;;;;;;;3.67;3.07;;;8.70;99.90;;;;;;5031877;28;20230;-65
2021/03/14 12:07:46;;;;;;;3.87;3.33;;;9.00;99.90;;;;;;5031091;28;20183;-64
2021/03/14 12:10:13;;;;;;;4.30;3.90;;;9.10;99.90;;;;;;5030483;28;20180;-65
2021/03/14 12:12:39;;;;;;;4.43;4.00;;;9.10;99.90;;;;;;5030707;28;20219;-64
2021/03/14 12:15:05;;;;;;;4.77;3.53;;;9.20;99.90;;;;;;5031207;28;20336;-65
2021/03/14 12:17:31;;;;;;;6.23;3.67;;;9.50;99.90;;;;;;5031023;28;20657;-65
2021/03/14 12:19:56;;;;;;;3.77;3.47;;;9.70;99.90;;;;;;5030984;28;20188;-64
2021/03/14 12:22:22;;;;;;;6.13;4.80;;;9.60;99.90;;;;;;5031361;28;20182;-64
2021/03/14 12:24:48;;;;;;;5.27;4.73;;;9.70;99.90;;;;;;5030983;28;20180;-64
2021/03/14 12:27:14;;;;;;;5.33;3.93;;;10.10;99.90;;;;;;5030759;28;20179;-64
2021/03/14 12:29:40;;;;;;;6.90;4.77;;;10.60;99.90;;;;;;5030761;28;20645;-64
2021/03/14 12:32:06;;;;;;;10.70;6.07;;;11.00;99.90;;;;;;5030965;28;20209;-65
2021/03/14 12:34:33;;;;;;;2.30;2.17;;;11.50;99.90;;;;;;5030974;28;20172;-65
2021/03/14 12:36:59;;;;;;;5.67;3.83;;;12.10;99.90;;;;;;5030807;28;20176;-65
2021/03/14 12:39:25;;;;;;;5.17;4.00;;;11.70;99.90;;;;;;5031200;28;20175;-64
2021/03/14 12:41:51;;;;;;;5.97;4.10;;;11.40;99.90;;;;;;5030487;28;20179;-65
2021/03/14 12:44:16;;;;;;;5.60;3.40;;;10.90;99.90;;;;;;5031027;28;20241;-64
2021/03/14 12:46:42;;;;;;;6.53;4.10;;;10.20;99.90;;;;;;5030743;28;20286;-64
2021/03/14 12:49:08;;;;;;;5.33;4.80;;;9.80;99.90;;;;;;5031154;28;20179;-65
2021/03/14 12:51:33;;;;;;;8.50;4.40;;;10.00;99.90;;;;;;5029991;28;20203;-65
2021/03/14 12:53:59;;;;;;;5.23;4.40;;;10.10;99.90;;;;;;5030752;28;20186;-64
2021/03/14 12:56:24;;;;;;;4.93;3.97;;;10.30;99.90;;;;;;5031215;28;20191;-65
2021/03/14 12:58:52;;;;;;;7.37;4.40;;;10.30;99.90;;;;;;5030687;28;20183;-64
2021/03/14 13:01:18;;;;;;;4.20;3.83;;;10.20;99.90;;;;;;5030819;28;20225;-64
2021/03/14 13:03:43;;;;;;;7.83;4.23;;;10.10;99.90;;;;;;5030371;28;20545;-64